Time;durP1;ratioP1;P1;durP2;ratioP2;P2;SDS_P1;SDS_P2;PMS_P1;PMS_P2;Temp;Humidity;BMP_temperature;BMP_pressure;BME280_temperature;BME280_humidity;BME280_pressure;Samples;Min_cycle;Max_cycle;Signal;HPM_P1;HPM_P2
2021/08/08 00:01:05;;;;;;;;;;;21.70;66.10;;;;;;5030839;28;19916;-73
2021/08/08 00:03:30;;;;;;;;;;;21.70;65.90;;;;;;5044709;28;19952;-72
2021/08/08 00:05:56;;;;;;;;;;;21.70;65.90;;;;;;5042923;28;19912;-71
2021/08/08 00:08:21;;;;;;;;;;;21.70;66.00;;;;;;5044574;28;19917;-72
2021/08/08 00:10:47;;;;;;;;;;;21.70;66.00;;;;;;5061327;28;19917;-72
2021/08/08 00:13:13;;;;;;;;;;;21.70;66.10;;;;;;5065346;28;20031;-71
2021/08/08 00:15:39;;;;;;;;;;;21.70;66.10;;;;;;5063665;28;19919;-73
2021/08/08 00:18:05;;;;;;;;;;;21.70;66.10;;;;;;5064656;28;19916;-72
2021/08/08 00:20:30;;;;;;;;;;;21.70;66.10;;;;;;5066154;28;20011;-73
2021/08/08 00:22:56;;;;;;;;;;;21.70;66.00;;;;;;5064519;28;20011;-72
2021/08/08 00:25:21;;;;;;;;;;;21.70;66.10;;;;;;5065081;28;19912;-71
2021/08/08 00:27:47;;;;;;;;;;;21.70;66.10;;;;;;5066223;28;20712;-69
2021/08/08 00:30:12;;;;;;;;;;;21.70;66.00;;;;;;5065017;28;20012;-71
2021/08/08 00:32:38;;;;;;;;;;;21.70;65.90;;;;;;5064203;28;20371;-71
2021/08/08 00:35:04;;;;;;;;;;;21.70;65.90;;;;;;5064816;28;19932;-69
2021/08/08 00:37:29;;;;;;;;;;;21.70;65.90;;;;;;5064531;28;19955;-69
2021/08/08 00:39:55;;;;;;;;;;;21.70;65.90;;;;;;5065664;28;19939;-71
2021/08/08 00:42:20;;;;;;;;;;;21.60;65.90;;;;;;5066424;28;19998;-70
2021/08/08 00:44:46;;;;;;;;;;;21.70;65.90;;;;;;5066275;28;19921;-70
2021/08/08 00:47:12;;;;;;;;;;;21.70;66.00;;;;;;5032672;28;19921;-70
2021/08/08 00:49:38;;;;;;;;;;;21.70;65.90;;;;;;5021131;28;19941;-71
2021/08/08 00:52:03;;;;;;;;;;;21.70;65.70;;;;;;5026582;28;19925;-70
2021/08/08 00:54:29;;;;;;;;;;;21.70;65.70;;;;;;5025839;28;19921;-70
2021/08/08 00:56:54;;;;;;;;;;;21.70;65.70;;;;;;5030198;28;19920;-71
2021/08/08 00:59:20;;;;;;;;;;;21.60;65.60;;;;;;5023552;28;20404;-69
2021/08/08 01:01:45;;;;;;;;;;;21.60;65.70;;;;;;5025617;28;19917;-70
2021/08/08 01:04:12;;;;;;;;;;;21.60;65.70;;;;;;5024707;28;20419;-70
2021/08/08 01:06:42;;;;;;;;;;;21.70;65.80;;;;;;5028694;28;19944;-72
2021/08/08 01:09:08;;;;;;;;;;;21.60;65.70;;;;;;5027830;28;19913;-70
2021/08/08 01:11:33;;;;;;;;;;;21.70;65.90;;;;;;5011012;28;20008;-71
2021/08/08 01:13:59;;;;;;;;;;;21.60;65.80;;;;;;5004470;28;19929;-72
2021/08/08 01:16:24;;;;;;;;;;;21.60;65.70;;;;;;5002648;28;19918;-71
2021/08/08 01:18:50;;;;;;;;;;;21.60;65.60;;;;;;5004317;28;20376;-71
2021/08/08 01:21:15;;;;;;;;;;;21.60;65.60;;;;;;5004884;28;19949;-71
2021/08/08 01:23:41;;;;;;;;;;;21.60;65.60;;;;;;5005287;28;19924;-68
2021/08/08 01:26:07;;;;;;;;;;;21.60;65.60;;;;;;5004692;28;19925;-70
2021/08/08 01:28:32;;;;;;;;;;;21.60;65.50;;;;;;4987956;28;20009;-69
2021/08/08 01:30:58;;;;;;;;;;;21.60;65.50;;;;;;5004378;28;19944;-72
2021/08/08 01:33:23;;;;;;;;;;;21.60;65.60;;;;;;5004049;28;19923;-70
2021/08/08 01:35:49;;;;;;;;;;;21.60;65.50;;;;;;5005895;28;20391;-70
2021/08/08 01:38:14;;;;;;;;;;;21.60;65.50;;;;;;4987888;28;19956;-70
2021/08/08 01:41:01;;;;;;;;;;;21.60;65.50;;;;;;5004574;28;19917;-71
2021/08/08 01:43:28;;;;;;;;;;;21.60;65.60;;;;;;5003972;28;19918;-69
2021/08/08 01:46:03;;;;;;;;;;;21.60;65.50;;;;;;5005585;28;19928;-71
2021/08/08 01:48:28;;;;;;;;;;;21.60;65.50;;;;;;5003753;28;19925;-71
2021/08/08 01:50:54;;;;;;;;;;;21.60;65.50;;;;;;4987409;28;19913;-71
2021/08/08 01:53:19;;;;;;;;;;;21.60;65.50;;;;;;5003593;28;19929;-69
2021/08/08 01:55:45;;;;;;;;;;;21.60;65.60;;;;;;5005237;28;19995;-71
2021/08/08 01:58:10;;;;;;;;;;;21.60;65.50;;;;;;5003642;28;19961;-71
2021/08/08 02:00:36;;;;;;;;;;;21.60;65.50;;;;;;5003651;28;19925;-67
2021/08/08 02:03:02;;;;;;;;;;;21.60;65.50;;;;;;5023401;28;19955;-71
2021/08/08 02:05:28;;;;;;;;;;;21.60;65.40;;;;;;5023645;28;20380;-71
2021/08/08 02:07:54;;;;;;;;;;;21.50;65.40;;;;;;5029319;28;19989;-72
2021/08/08 02:10:19;;;;;;;;;;;21.60;65.40;;;;;;5023792;28;19917;-71
2021/08/08 02:12:45;;;;;;;;;;;21.50;65.30;;;;;;5027209;28;19917;-71
2021/08/08 02:15:10;;;;;;;;;;;21.60;65.30;;;;;;5028381;28;19940;-70
2021/08/08 02:17:36;;;;;;;;;;;21.50;65.20;;;;;;5031667;28;19944;-70
2021/08/08 02:20:02;;;;;;;;;;;21.50;65.30;;;;;;5016554;28;19914;-70
2021/08/08 02:22:28;;;;;;;;;;;21.50;65.30;;;;;;5025072;28;20268;-72
2021/08/08 02:24:53;;;;;;;;;;;21.60;65.30;;;;;;5025247;28;19921;-70
2021/08/08 02:27:19;;;;;;;;;;;21.50;65.30;;;;;;5027830;28;20403;-70
2021/08/08 02:29:44;;;;;;;;;;;21.50;65.30;;;;;;5023804;28;19962;-70
2021/08/08 02:32:09;;;;;;;;;;;21.50;65.30;;;;;;5045226;28;19967;-69
2021/08/08 02:34:35;;;;;;;;;;;21.50;65.10;;;;;;5043406;28;19923;-71
2021/08/08 02:37:00;;;;;;;;;;;21.50;65.10;;;;;;5026642;28;19916;-71
2021/08/08 02:39:26;;;;;;;;;;;21.50;65.10;;;;;;5044562;28;19921;-71
2021/08/08 02:41:51;;;;;;;;;;;21.50;65.20;;;;;;5045003;28;20292;-70
2021/08/08 02:44:17;;;;;;;;;;;21.50;65.30;;;;;;5027217;28;20167;-70
2021/08/08 02:46:42;;;;;;;;;;;21.50;65.30;;;;;;5027560;28;19971;-70
2021/08/08 02:49:08;;;;;;;;;;;21.50;65.30;;;;;;5045075;28;19917;-70
2021/08/08 02:51:33;;;;;;;;;;;21.50;65.20;;;;;;5043793;28;20191;-70
2021/08/08 02:53:58;;;;;;;;;;;21.50;65.20;;;;;;5043487;28;20507;-71
2021/08/08 02:56:24;;;;;;;;;;;21.50;65.30;;;;;;5043714;28;19974;-70
2021/08/08 02:58:49;;;;;;;;;;;21.50;65.20;;;;;;5043112;28;20191;-71
2021/08/08 03:01:15;;;;;;;;;;;21.50;65.10;;;;;;5047779;28;19986;-72
2021/08/08 03:03:40;;;;;;;;;;;21.50;65.10;;;;;;5049438;28;19924;-71
2021/08/08 03:06:09;;;;;;;;;;;21.50;65.00;;;;;;5047919;28;20175;-71
2021/08/08 03:08:35;;;;;;;;;;;21.50;65.00;;;;;;5047537;28;20010;-71
2021/08/08 03:11:00;;;;;;;;;;;21.50;65.00;;;;;;5047633;28;20399;-71
2021/08/08 03:13:26;;;;;;;;;;;21.50;65.00;;;;;;5047872;28;19930;-68
2021/08/08 03:15:51;;;;;;;;;;;21.50;65.00;;;;;;5049033;28;19913;-71
2021/08/08 03:18:17;;;;;;;;;;;21.50;65.00;;;;;;5030690;28;20390;-71
2021/08/08 03:20:43;;;;;;;;;;;21.50;65.00;;;;;;5046984;28;19975;-71
2021/08/08 03:23:09;;;;;;;;;;;21.50;65.00;;;;;;5047612;28;19912;-70
2021/08/08 03:25:34;;;;;;;;;;;21.50;65.00;;;;;;5048854;28;21029;-72
2021/08/08 03:28:00;;;;;;;;;;;21.50;65.00;;;;;;5049363;28;19913;-72
2021/08/08 03:30:25;;;;;;;;;;;21.50;65.10;;;;;;5047936;28;19917;-72
2021/08/08 03:32:51;;;;;;;;;;;21.50;65.10;;;;;;5048617;28;19940;-72
2021/08/08 03:35:16;;;;;;;;;;;21.40;65.10;;;;;;5048917;28;19912;-71
2021/08/08 03:37:42;;;;;;;;;;;21.40;65.10;;;;;;5048860;28;20058;-72
2021/08/08 03:40:07;;;;;;;;;;;21.50;65.10;;;;;;5047640;28;20348;-72
2021/08/08 03:42:33;;;;;;;;;;;21.40;65.00;;;;;;5045977;28;19928;-66
2021/08/08 03:44:58;;;;;;;;;;;21.50;65.10;;;;;;5047292;28;19913;-66
2021/08/08 03:47:24;;;;;;;;;;;21.50;65.10;;;;;;5028335;28;19913;-68
2021/08/08 03:49:49;;;;;;;;;;;21.40;65.00;;;;;;5026399;28;19917;-68
2021/08/08 03:52:15;;;;;;;;;;;21.40;65.00;;;;;;5026601;28;19917;-68
2021/08/08 03:54:40;;;;;;;;;;;21.50;65.00;;;;;;5026087;28;20491;-71
2021/08/08 03:57:06;;;;;;;;;;;21.40;64.90;;;;;;5025641;28;19913;-69
2021/08/08 03:59:31;;;;;;;;;;;21.50;65.00;;;;;;5044103;28;19967;-68
2021/08/08 04:01:56;;;;;;;;;;;21.40;64.90;;;;;;5045965;28;20289;-69
2021/08/08 04:04:22;;;;;;;;;;;21.40;65.40;;;;;;5047508;28;19964;-70
2021/08/08 04:06:47;;;;;;;;;;;21.40;64.90;;;;;;5029911;28;19959;-67
2021/08/08 04:09:13;;;;;;;;;;;21.40;64.80;;;;;;5046767;28;19920;-65
2021/08/08 04:11:38;;;;;;;;;;;21.40;64.90;;;;;;5047286;28;20656;-68
2021/08/08 04:14:04;;;;;;;;;;;21.40;64.80;;;;;;5045724;28;19917;-67
2021/08/08 04:16:29;;;;;;;;;;;21.40;64.80;;;;;;5046160;28;19920;-70
2021/08/08 04:18:55;;;;;;;;;;;21.40;64.80;;;;;;5044886;28;19946;-65
2021/08/08 04:21:20;;;;;;;;;;;21.40;64.80;;;;;;5045721;28;20449;-66
2021/08/08 04:23:45;;;;;;;;;;;21.40;64.80;;;;;;5047775;28;19928;-69
2021/08/08 04:26:11;;;;;;;;;;;21.40;64.90;;;;;;5046862;28;19913;-65
2021/08/08 04:28:39;;;;;;;;;;;21.40;64.80;;;;;;5045020;28;19913;-66
2021/08/08 04:31:08;;;;;;;;;;;21.40;64.80;;;;;;5045835;28;19917;-70
2021/08/08 04:33:34;;;;;;;;;;;21.40;64.80;;;;;;5047181;28;19917;-70
2021/08/08 04:35:59;;;;;;;;;;;21.40;64.80;;;;;;5046940;28;20032;-68
2021/08/08 04:38:25;;;;;;;;;;;21.40;64.90;;;;;;5046696;28;20372;-69
2021/08/08 04:40:50;;;;;;;;;;;21.40;64.70;;;;;;5045466;28;19917;-69
2021/08/08 04:43:16;;;;;;;;;;;21.40;64.60;;;;;;5028879;28;19974;-70
2021/08/08 04:45:41;;;;;;;;;;;21.40;64.60;;;;;;5046689;28;19917;-66
2021/08/08 04:48:07;;;;;;;;;;;21.40;64.60;;;;;;5045491;28;20299;-69
2021/08/08 04:50:32;;;;;;;;;;;21.40;64.60;;;;;;5028955;28;19916;-64
2021/08/08 04:52:58;;;;;;;;;;;21.30;64.50;;;;;;5045257;28;19931;-64
2021/08/08 04:55:23;;;;;;;;;;;21.30;64.50;;;;;;5045217;28;19948;-70
2021/08/08 04:57:48;;;;;;;;;;;21.40;64.60;;;;;;5029212;28;20334;-64
2021/08/08 05:00:14;;;;;;;;;;;21.30;64.50;;;;;;5046987;28;19920;-64
2021/08/08 05:02:43;;;;;;;;;;;21.40;64.50;;;;;;5045387;28;19927;-69
2021/08/08 05:05:08;;;;;;;;;;;21.40;64.50;;;;;;5046155;28;19924;-69
2021/08/08 05:07:38;;;;;;;;;;;21.40;64.40;;;;;;5027946;28;19913;-65
2021/08/08 05:10:05;;;;;;;;;;;21.40;64.50;;;;;;5044709;28;20302;-64
2021/08/08 05:12:31;;;;;;;;;;;21.40;64.60;;;;;;5046002;28;19912;-70
2021/08/08 05:14:56;;;;;;;;;;;21.40;64.60;;;;;;5044524;28;19924;-66
2021/08/08 05:17:21;;;;;;;;;;;21.40;64.60;;;;;;5044877;28;19916;-64
2021/08/08 05:19:47;;;;;;;;;;;21.40;64.60;;;;;;5046347;28;20272;-65
2021/08/08 05:22:12;;;;;;;;;;;21.40;64.70;;;;;;5044710;28;19913;-70
2021/08/08 05:24:38;;;;;;;;;;;21.40;64.70;;;;;;5044451;28;19963;-64
2021/08/08 05:27:03;;;;;;;;;;;21.40;64.70;;;;;;5044616;28;19917;-65
2021/08/08 05:29:29;;;;;;;;;;;21.40;64.90;;;;;;5046022;28;20303;-70
2021/08/08 05:31:54;;;;;;;;;;;21.40;64.70;;;;;;5045216;28;19913;-64
2021/08/08 05:34:19;;;;;;;;;;;21.40;64.70;;;;;;5045757;28;20038;-69
2021/08/08 05:36:45;;;;;;;;;;;21.40;64.70;;;;;;5042766;28;19913;-70
2021/08/08 05:39:10;;;;;;;;;;;21.40;64.80;;;;;;5046843;28;20303;-69
2021/08/08 05:41:36;;;;;;;;;;;21.40;64.70;;;;;;5047111;28;19924;-64
2021/08/08 05:44:01;;;;;;;;;;;21.40;64.80;;;;;;5028903;28;20276;-70
2021/08/08 05:46:27;;;;;;;;;;;21.40;64.70;;;;;;5028531;28;20116;-68
2021/08/08 05:48:52;;;;;;;;;;;21.40;64.80;;;;;;5046147;28;19916;-68
2021/08/08 05:51:18;;;;;;;;;;;21.40;64.80;;;;;;5046468;28;19917;-69
2021/08/08 05:53:43;;;;;;;;;;;21.40;64.80;;;;;;5042905;28;19986;-70
2021/08/08 05:56:09;;;;;;;;;;;21.40;64.80;;;;;;5044127;28;19916;-70
2021/08/08 05:58:34;;;;;;;;;;;21.40;64.90;;;;;;5045409;28;20390;-70
2021/08/08 06:00:59;;;;;;;;;;;21.40;64.80;;;;;;5036784;28;19924;-70
2021/08/08 06:03:25;;;;;;;;;;;21.40;64.90;;;;;;5044185;28;19913;-70
2021/08/08 06:05:50;;;;;;;;;;;21.40;64.90;;;;;;5043976;28;20343;-72
2021/08/08 06:08:16;;;;;;;;;;;21.40;64.90;;;;;;5044397;28;19963;-72
2021/08/08 06:10:41;;;;;;;;;;;21.40;64.90;;;;;;5019208;28;21849;-71
2021/08/08 06:13:07;;;;;;;;;;;21.40;64.90;;;;;;5044215;28;19916;-72
2021/08/08 06:15:32;;;;;;;;;;;21.40;64.90;;;;;;5045089;28;19966;-70
2021/08/08 06:17:58;;;;;;;;;;;21.40;64.90;;;;;;5043917;28;19927;-71
2021/08/08 06:20:23;;;;;;;;;;;21.40;64.90;;;;;;5045601;28;19917;-72
2021/08/08 06:22:49;;;;;;;;;;;21.40;65.00;;;;;;5044807;28;19923;-72
2021/08/08 06:25:14;;;;;;;;;;;21.40;64.90;;;;;;5045111;28;20411;-72
2021/08/08 06:27:40;;;;;;;;;;;21.40;64.90;;;;;;5043393;28;20003;-70
2021/08/08 06:30:05;;;;;;;;;;;21.40;65.00;;;;;;5043753;28;19916;-72
2021/08/08 06:32:31;;;;;;;;;;;21.40;65.10;;;;;;5045171;28;19963;-71
2021/08/08 06:34:56;;;;;;;;;;;21.40;64.90;;;;;;5043728;28;20390;-71
2021/08/08 06:37:22;;;;;;;;;;;21.40;65.10;;;;;;5045495;28;20394;-69
2021/08/08 06:39:47;;;;;;;;;;;21.40;65.10;;;;;;5043400;28;20418;-71
2021/08/08 06:42:13;;;;;;;;;;;21.40;65.10;;;;;;5044962;28;19921;-71
2021/08/08 06:44:38;;;;;;;;;;;21.40;65.00;;;;;;5027113;28;19928;-72
2021/08/08 06:47:04;;;;;;;;;;;21.40;65.10;;;;;;5044544;28;19913;-72
2021/08/08 06:49:29;;;;;;;;;;;21.40;65.00;;;;;;5043254;28;19920;-72
2021/08/08 06:51:54;;;;;;;;;;;21.40;65.00;;;;;;5042360;28;19963;-72
2021/08/08 06:54:20;;;;;;;;;;;21.40;65.10;;;;;;5042988;28;19921;-72
2021/08/08 06:56:45;;;;;;;;;;;21.30;65.10;;;;;;5026373;28;19959;-73
2021/08/08 06:59:11;;;;;;;;;;;21.30;65.10;;;;;;5042981;28;19936;-73
2021/08/08 07:01:36;;;;;;;;;;;21.40;65.10;;;;;;5043067;28;19917;-72
2021/08/08 07:04:02;;;;;;;;;;;21.40;64.90;;;;;;5044955;28;19913;-72
2021/08/08 07:06:28;;;;;;;;;;;21.40;64.90;;;;;;5043194;28;19943;-72
2021/08/08 07:08:53;;;;;;;;;;;21.40;65.00;;;;;;5042724;28;20029;-74
2021/08/08 07:11:19;;;;;;;;;;;21.40;65.10;;;;;;5043429;28;19937;-73
2021/08/08 07:13:44;;;;;;;;;;;21.40;65.00;;;;;;5043250;28;20463;-72
2021/08/08 07:16:09;;;;;;;;;;;21.40;65.00;;;;;;5043580;28;19916;-72
2021/08/08 07:18:35;;;;;;;;;;;21.40;65.00;;;;;;5044516;28;19917;-70
2021/08/08 07:21:03;;;;;;;;;;;21.40;64.90;;;;;;5043083;28;19996;-72
2021/08/08 07:23:29;;;;;;;;;;;21.40;64.90;;;;;;5042947;28;19920;-73
2021/08/08 07:25:54;;;;;;;;;;;21.40;64.80;;;;;;5042765;28;19913;-72
2021/08/08 07:28:20;;;;;;;;;;;21.40;64.80;;;;;;5043276;28;19963;-72
2021/08/08 07:30:45;;;;;;;;;;;21.40;64.90;;;;;;5026470;28;20004;-71
2021/08/08 07:33:11;;;;;;;;;;;21.30;64.80;;;;;;5042132;28;20363;-72
2021/08/08 07:35:39;;;;;;;;;;;21.30;64.80;;;;;;5043210;28;20311;-73
2021/08/08 07:38:05;;;;;;;;;;;21.30;64.70;;;;;;5043131;28;19919;-72
2021/08/08 07:40:30;;;;;;;;;;;21.30;64.60;;;;;;5043816;28;20000;-72
2021/08/08 07:42:56;;;;;;;;;;;21.40;64.60;;;;;;5045727;28;19974;-72
2021/08/08 07:45:21;;;;;;;;;;;21.40;64.60;;;;;;5044082;28;19959;-73
2021/08/08 07:47:47;;;;;;;;;;;21.40;64.60;;;;;;5046083;28;19917;-71
2021/08/08 07:50:12;;;;;;;;;;;21.40;64.60;;;;;;5029553;28;19913;-72
2021/08/08 07:52:38;;;;;;;;;;;21.30;64.50;;;;;;5048061;28;19921;-70
2021/08/08 07:55:06;;;;;;;;;;;21.40;64.60;;;;;;5046593;28;19962;-71
2021/08/08 07:57:32;;;;;;;;;;;21.30;64.60;;;;;;5046767;28;19912;-69
2021/08/08 07:59:57;;;;;;;;;;;21.40;64.60;;;;;;5046444;28;20177;-73
2021/08/08 08:02:23;;;;;;;;;;;21.40;64.70;;;;;;5047112;28;20310;-71
2021/08/08 08:04:48;;;;;;;;;;;21.40;64.60;;;;;;5046637;28;19952;-72
2021/08/08 08:07:14;;;;;;;;;;;21.30;64.60;;;;;;5030638;28;19967;-72
2021/08/08 08:09:39;;;;;;;;;;;21.40;64.70;;;;;;5047273;28;20294;-72
2021/08/08 08:12:05;;;;;;;;;;;21.30;64.60;;;;;;5030099;28;20375;-71
2021/08/08 08:14:30;;;;;;;;;;;21.40;64.80;;;;;;5046348;28;20103;-72
2021/08/08 08:16:55;;;;;;;;;;;21.40;64.70;;;;;;5045812;28;19921;-73
2021/08/08 08:19:21;;;;;;;;;;;21.40;64.60;;;;;;5045900;28;19913;-70
2021/08/08 08:21:47;;;;;;;;;;;21.30;64.50;;;;;;5047086;28;20378;-73
2021/08/08 08:24:13;;;;;;;;;;;21.40;64.60;;;;;;5045807;28;19924;-70
2021/08/08 08:26:39;;;;;;;;;;;21.30;64.50;;;;;;5047637;28;19917;-73
2021/08/08 08:29:05;;;;;;;;;;;21.30;64.40;;;;;;5045010;28;19912;-73
2021/08/08 08:31:31;;;;;;;;;;;21.30;64.30;;;;;;5045739;28;19941;-73
2021/08/08 08:33:56;;;;;;;;;;;21.30;64.40;;;;;;5047063;28;19974;-72
2021/08/08 08:36:22;;;;;;;;;;;21.30;64.40;;;;;;5045338;28;19917;-71
2021/08/08 08:38:47;;;;;;;;;;;21.30;64.40;;;;;;5045292;28;19967;-73
2021/08/08 08:41:13;;;;;;;;;;;21.30;64.50;;;;;;5045659;28;20350;-71
2021/08/08 08:43:38;;;;;;;;;;;21.30;64.40;;;;;;5028669;28;19917;-73
2021/08/08 08:46:04;;;;;;;;;;;21.30;64.50;;;;;;5045524;28;19961;-73
2021/08/08 08:48:30;;;;;;;;;;;21.30;64.50;;;;;;5044476;28;20367;-73
2021/08/08 08:50:56;;;;;;;;;;;21.30;64.50;;;;;;5046581;28;19924;-72
2021/08/08 08:53:21;;;;;;;;;;;21.30;64.40;;;;;;5046931;28;19920;-70
2021/08/08 08:55:47;;;;;;;;;;;21.30;64.30;;;;;;5045445;28;19913;-73
2021/08/08 08:58:12;;;;;;;;;;;21.30;64.20;;;;;;5044003;28;19917;-71
2021/08/08 09:00:38;;;;;;;;;;;21.30;64.30;;;;;;5045085;28;19933;-73
2021/08/08 09:03:03;;;;;;;;;;;21.40;64.30;;;;;;5046595;28;20064;-73
2021/08/08 09:05:30;;;;;;;;;;;21.30;64.30;;;;;;5045384;28;20011;-73
2021/08/08 09:07:56;;;;;;;;;;;21.30;64.20;;;;;;5044905;28;19940;-73
2021/08/08 09:10:22;;;;;;;;;;;21.30;64.20;;;;;;5045493;28;19959;-72
2021/08/08 09:12:57;;;;;;;;;;;21.40;64.20;;;;;;5046376;28;19913;-73
2021/08/08 09:15:30;;;;;;;;;;;21.30;64.10;;;;;;5028478;28;20343;-73
2021/08/08 09:17:55;;;;;;;;;;;21.30;64.10;;;;;;5043849;28;21229;-73
2021/08/08 09:20:21;;;;;;;;;;;21.30;64.10;;;;;;5044998;28;19913;-70
2021/08/08 09:22:55;;;;;;;;;;;21.30;64.10;;;;;;5044842;28;20428;-72
2021/08/08 09:25:21;;;;;;;;;;;21.30;64.10;;;;;;5044907;28;19913;-73
2021/08/08 09:27:46;;;;;;;;;;;21.30;64.10;;;;;;5045826;28;19913;-72
2021/08/08 09:30:19;;;;;;;;;;;21.30;64.10;;;;;;5027462;28;19943;-73
2021/08/08 09:32:44;;;;;;;;;;;21.30;64.10;;;;;;5027892;28;19921;-72
2021/08/08 09:35:13;;;;;;;;;;;21.30;64.10;;;;;;5044295;28;20288;-72
2021/08/08 09:37:38;;;;;;;;;;;21.30;64.10;;;;;;5045628;28;19917;-71
2021/08/08 09:40:13;;;;;;;;;;;21.30;64.10;;;;;;5044470;28;19913;-73
2021/08/08 09:42:42;;;;;;;;;;;21.30;64.10;;;;;;5027688;28;20346;-73
2021/08/08 09:45:08;;;;;;;;;;;21.30;64.10;;;;;;5027684;28;19990;-73
2021/08/08 09:47:36;;;;;;;;;;;21.30;64.10;;;;;;5044141;28;20337;-71
2021/08/08 09:50:05;;;;;;;;;;;21.30;64.10;;;;;;5045829;28;19917;-70
2021/08/08 09:52:31;;;;;;;;;;;21.30;64.00;;;;;;5044829;28;19928;-73
2021/08/08 09:54:56;;;;;;;;;;;21.30;64.10;;;;;;5045191;28;20030;-71
2021/08/08 09:57:22;;;;;;;;;;;21.30;64.10;;;;;;5040011;28;20529;-70
2021/08/08 09:59:47;;;;;;;;;;;21.30;64.00;;;;;;5031463;28;19925;-72
2021/08/08 10:02:20;;;;;;;;;;;21.30;64.00;;;;;;5045037;28;19913;-73
2021/08/08 10:04:46;;;;;;;;;;;21.30;63.90;;;;;;5042268;28;19917;-74
2021/08/08 10:07:11;;;;;;;;;;;21.30;63.90;;;;;;5044781;28;20369;-72
2021/08/08 10:09:37;;;;;;;;;;;21.30;63.80;;;;;;5045659;28;19916;-73
2021/08/08 10:12:17;;;;;;;;;;;21.30;63.80;;;;;;5028453;28;20375;-71
2021/08/08 10:14:42;;;;;;;;;;;21.30;63.80;;;;;;5027641;28;19920;-71
2021/08/08 10:17:08;;;;;;;;;;;21.40;63.90;;;;;;5028384;28;20453;-73
2021/08/08 10:19:33;;;;;;;;;;;21.30;63.80;;;;;;5030045;28;19913;-73
2021/08/08 10:21:59;;;;;;;;;;;21.30;63.80;;;;;;5049726;28;20421;-71
2021/08/08 10:24:24;;;;;;;;;;;21.30;63.80;;;;;;5064319;28;19924;-70
2021/08/08 10:26:50;;;;;;;;;;;21.30;63.80;;;;;;5064809;28;19984;-70
2021/08/08 10:29:15;;;;;;;;;;;21.40;63.80;;;;;;5051787;28;20290;-72
2021/08/08 10:31:41;;;;;;;;;;;21.30;63.80;;;;;;5049356;28;19917;-72
2021/08/08 10:34:06;;;;;;;;;;;21.30;63.80;;;;;;5049016;28;19921;-73
2021/08/08 10:36:32;;;;;;;;;;;21.30;63.80;;;;;;5047684;28;20560;-74
2021/08/08 10:39:14;;;;;;;;;;;21.30;63.80;;;;;;5044184;28;19917;-73
2021/08/08 10:41:40;;;;;;;;;;;21.30;63.80;;;;;;5044045;28;19917;-73
2021/08/08 10:44:06;;;;;;;;;;;21.40;63.80;;;;;;5044188;28;19923;-73
2021/08/08 10:46:41;;;;;;;;;;;21.40;63.80;;;;;;5046202;28;19912;-74
2021/08/08 10:49:07;;;;;;;;;;;21.40;63.80;;;;;;5043236;28;20683;-73
2021/08/08 10:51:32;;;;;;;;;;;21.30;63.80;;;;;;5044677;28;19924;-71
2021/08/08 10:54:02;;;;;;;;;;;21.40;63.80;;;;;;5027182;28;19928;-72
2021/08/08 10:56:40;;;;;;;;;;;21.40;63.80;;;;;;5026696;28;20002;-72
2021/08/08 10:59:12;;;;;;;;;;;21.30;63.70;;;;;;5037695;28;20682;-73
2021/08/08 11:01:37;;;;;;;;;;;21.40;63.80;;;;;;5045302;28;19916;-73
2021/08/08 11:04:07;;;;;;;;;;;21.30;63.80;;;;;;5043810;28;19939;-70
2021/08/08 11:06:32;;;;;;;;;;;21.40;63.80;;;;;;5044632;28;19912;-73
2021/08/08 11:08:58;;;;;;;;;;;21.40;63.80;;;;;;5044647;28;20288;-73
2021/08/08 11:11:27;;;;;;;;;;;21.40;63.80;;;;;;5031702;28;19999;-73
2021/08/08 11:13:53;;;;;;;;;;;21.40;63.80;;;;;;5038783;28;19929;-73
2021/08/08 11:16:18;;;;;;;;;;;21.40;63.80;;;;;;5022950;28;19943;-72
2021/08/08 11:18:56;;;;;;;;;;;21.40;63.90;;;;;;5023160;28;20417;-71
2021/08/08 11:21:21;;;;;;;;;;;21.40;63.80;;;;;;5028934;28;19921;-73
2021/08/08 11:23:53;;;;;;;;;;;21.40;63.80;;;;;;5032814;28;19913;-73
2021/08/08 11:26:19;;;;;;;;;;;21.40;63.80;;;;;;5028827;28;19927;-73
2021/08/08 11:29:00;;;;;;;;;;;21.40;63.80;;;;;;5030858;28;19917;-70
2021/08/08 11:31:33;;;;;;;;;;;21.40;63.80;;;;;;5032505;28;19975;-73
2021/08/08 11:33:59;;;;;;;;;;;21.40;63.80;;;;;;5032527;28;20429;-72
2021/08/08 11:36:26;;;;;;;;;;;21.40;63.80;;;;;;5030892;28;19952;-71
2021/08/08 11:38:55;;;;;;;;;;;21.40;63.80;;;;;;5030866;28;19919;-72
2021/08/08 11:41:21;;;;;;;;;;;21.40;63.90;;;;;;5031000;28;19920;-72
2021/08/08 11:43:46;;;;;;;;;;;21.40;63.80;;;;;;5028035;28;20470;-71
2021/08/08 11:46:12;;;;;;;;;;;21.40;63.80;;;;;;5030854;28;19917;-73
2021/08/08 11:48:37;;;;;;;;;;;21.40;63.80;;;;;;5028351;28;20308;-74
2021/08/08 11:51:03;;;;;;;;;;;21.40;63.70;;;;;;5031213;28;19920;-73
2021/08/08 11:53:32;;;;;;;;;;;21.40;63.70;;;;;;5010201;28;19948;-74
2021/08/08 11:56:16;;;;;;;;;;;21.40;63.70;;;;;;5030819;28;20367;-73
2021/08/08 11:58:42;;;;;;;;;;;21.40;63.60;;;;;;5045750;28;19917;-73
2021/08/08 12:01:08;;;;;;;;;;;21.40;63.60;;;;;;5041094;28;19927;-72
2021/08/08 12:03:34;;;;;;;;;;;21.40;63.60;;;;;;5045299;28;19916;-71
2021/08/08 12:05:59;;;;;;;;;;;21.40;63.60;;;;;;5045083;28;19917;-71
2021/08/08 12:08:25;;;;;;;;;;;21.40;63.50;;;;;;5065034;28;20342;-72
2021/08/08 12:10:54;;;;;;;;;;;21.40;63.50;;;;;;5065124;28;19965;-71
2021/08/08 12:13:20;;;;;;;;;;;21.40;63.50;;;;;;5065166;28;20010;-72
2021/08/08 12:15:45;;;;;;;;;;;21.40;63.40;;;;;;5064073;28;19944;-71
2021/08/08 12:18:11;;;;;;;;;;;21.40;63.40;;;;;;5064538;28;19951;-74
2021/08/08 12:20:37;;;;;;;;;;;21.40;63.40;;;;;;5035388;23;19936;-60
2021/08/08 12:23:06;;;;;;;;;;;21.50;63.40;;;;;;5032942;28;19917;-59
2021/08/08 12:25:32;;;;;;;;;;;21.40;63.40;;;;;;5021109;28;20377;-60
2021/08/08 12:27:57;;;;;;;;;;;21.40;63.40;;;;;;5022567;28;19926;-59
2021/08/08 12:30:24;;;;;;;;;;;21.40;63.30;;;;;;5022542;28;20389;-59
2021/08/08 12:32:50;;;;;;;;;;;21.40;63.40;;;;;;5020320;28;19967;-59
2021/08/08 12:35:16;;;;;;;;;;;21.40;63.30;;;;;;5034264;28;19913;-58
2021/08/08 12:37:42;;;;;;;;;;;21.40;63.30;;;;;;5022762;28;19917;-58
2021/08/08 12:40:07;;;;;;;;;;;21.50;63.40;;;;;;5025264;28;19928;-60
2021/08/08 12:42:33;;;;;;;;;;;21.50;63.40;;;;;;5024484;28;20616;-58
2021/08/08 12:45:02;;;;;;;;;;;21.50;63.30;;;;;;5024710;28;19990;-59
2021/08/08 12:47:31;;;;;;;;;;;21.50;63.30;;;;;;5024479;28;20409;-59
2021/08/08 12:49:57;;;;;;;;;;;21.50;63.30;;;;;;5024038;28;19916;-60
2021/08/08 12:52:22;;;;;;;;;;;21.40;63.20;;;;;;5022390;28;20223;-59
2021/08/08 12:54:47;;;;;;;;;;;21.50;63.30;;;;;;5023860;28;19925;-60
2021/08/08 12:57:13;;;;;;;;;;;21.40;63.30;;;;;;5023751;28;19917;-58
2021/08/08 12:59:38;;;;;;;;;;;21.50;63.30;;;;;;5024055;28;19924;-59
2021/08/08 13:02:04;;;;;;;;;;;21.50;63.30;;;;;;5034610;28;20412;-59
2021/08/08 13:04:29;;;;;;;;;;;21.40;63.30;;;;;;5044291;28;19917;-60
2021/08/08 13:06:55;;;;;;;;;;;21.50;63.30;;;;;;5044182;28;19917;-59
2021/08/08 13:09:20;;;;;;;;;;;21.50;63.20;;;;;;5042928;28;19924;-57
2021/08/08 13:11:46;;;;;;;;;;;21.50;63.20;;;;;;5043986;28;19913;-59
2021/08/08 13:14:11;;;;;;;;;;;21.50;63.10;;;;;;5043193;28;19921;-60
2021/08/08 13:16:37;;;;;;;;;;;21.50;63.10;;;;;;5044597;28;19932;-59
2021/08/08 13:19:02;;;;;;;;;;;21.50;63.10;;;;;;5043728;28;19917;-59
2021/08/08 13:21:28;;;;;;;;;;;21.50;63.10;;;;;;5042091;28;20741;-60
2021/08/08 13:23:53;;;;;;;;;;;21.50;63.10;;;;;;5043873;28;19924;-59
2021/08/08 13:26:19;;;;;;;;;;;21.50;63.10;;;;;;5044013;28;19916;-57
2021/08/08 13:28:46;;;;;;;;;;;21.50;63.10;;;;;;5043016;28;19912;-60
2021/08/08 13:31:12;;;;;;;;;;;21.50;63.10;;;;;;5043838;28;20350;-59
2021/08/08 13:33:37;;;;;;;;;;;21.50;63.10;;;;;;5043375;28;19920;-59
2021/08/08 13:36:03;;;;;;;;;;;21.50;63.10;;;;;;5043097;28;19931;-58
2021/08/08 13:38:28;;;;;;;;;;;21.50;63.10;;;;;;5043216;28;19913;-60
2021/08/08 13:40:54;;;;;;;;;;;21.50;63.20;;;;;;5043664;28;19917;-59
2021/08/08 13:43:19;;;;;;;;;;;21.50;63.20;;;;;;5041879;28;20309;-59
2021/08/08 13:45:45;;;;;;;;;;;21.50;63.30;;;;;;5042106;28;19919;-61
2021/08/08 13:48:13;;;;;;;;;;;21.50;63.30;;;;;;5043938;28;19970;-59
2021/08/08 13:50:38;;;;;;;;;;;21.50;63.30;;;;;;5032326;28;20317;-59
2021/08/08 13:53:04;;;;;;;;;;;21.60;63.30;;;;;;5043636;28;19983;-60
2021/08/08 13:55:29;;;;;;;;;;;21.50;63.30;;;;;;5041890;28;19913;-58
2021/08/08 13:57:55;;;;;;;;;;;21.50;63.30;;;;;;5043133;28;20736;-57
2021/08/08 14:00:20;;;;;;;;;;;21.60;63.40;;;;;;5043558;28;19919;-57
2021/08/08 14:02:46;;;;;;;;;;;21.60;63.40;;;;;;5043324;28;19917;-59
2021/08/08 14:05:12;;;;;;;;;;;21.50;63.30;;;;;;5043150;28;20409;-58
2021/08/08 14:07:38;;;;;;;;;;;21.60;63.40;;;;;;5043182;28;20011;-59
2021/08/08 14:10:04;;;;;;;;;;;21.50;63.40;;;;;;5043138;28;19963;-60